sensor_id;sensor_type;location;lat;lon;timestamp;temperature;humidity
55331;DHT22;58851;42.984;20.336;2023-07-13T00:01:29;512.70;128.00
55331;DHT22;58851;42.984;20.336;2023-07-13T00:03:56;512.70;128.00
55331;DHT22;58851;42.984;20.336;2023-07-13T00:06:22;512.70;128.00
55331;DHT22;58851;42.984;20.336;2023-07-13T00:08:48;512.60;128.00
55331;DHT22;58851;42.984;20.336;2023-07-13T00:11:16;512.60;128.00
55331;DHT22;58851;42.984;20.336;2023-07-13T00:13:43;512.60;128.00
55331;DHT22;58851;42.984;20.336;2023-07-13T00:16:11;512.60;128.00
55331;DHT22;58851;42.984;20.336;2023-07-13T00:18:47;512.50;128.00
55331;DHT22;58851;42.984;20.336;2023-07-13T00:21:13;512.40;128.00
55331;DHT22;58851;42.984;20.336;2023-07-13T00:23:41;512.40;128.00
55331;DHT22;58851;42.984;20.336;2023-07-13T00:26:09;512.00;128.00
55331;DHT22;58851;42.984;20.336;2023-07-13T00:28:36;512.10;128.00
55331;DHT22;58851;42.984;20.336;2023-07-13T00:31:03;512.10;128.00
55331;DHT22;58851;42.984;20.336;2023-07-13T00:33:29;512.10;128.00
55331;DHT22;58851;42.984;20.336;2023-07-13T00:35:56;512.10;128.00
55331;DHT22;58851;42.984;20.336;2023-07-13T00:38:22;512.10;128.00
55331;DHT22;58851;42.984;20.336;2023-07-13T00:40:48;512.00;128.00
55331;DHT22;58851;42.984;20.336;2023-07-13T00:43:16;487.30;128.00
55331;DHT22;58851;42.984;20.336;2023-07-13T00:48:13;487.30;128.00
55331;DHT22;58851;42.984;20.336;2023-07-13T00:50:40;487.30;128.00
55331;DHT22;58851;42.984;20.336;2023-07-13T00:53:07;487.20;128.00
55331;DHT22;58851;42.984;20.336;2023-07-13T00:55:34;487.20;128.00
55331;DHT22;58851;42.984;20.336;2023-07-13T00:58:01;487.10;128.00
55331;DHT22;58851;42.984;20.336;2023-07-13T01:00:29;487.10;128.00
55331;DHT22;58851;42.984;20.336;2023-07-13T01:02:55;487.10;128.00
55331;DHT22;58851;42.984;20.336;2023-07-13T01:05:23;487.10;128.00
55331;DHT22;58851;42.984;20.336;2023-07-13T01:07:51;487.10;128.00
55331;DHT22;58851;42.984;20.336;2023-07-13T01:10:20;487.00;128.00
55331;DHT22;58851;42.984;20.336;2023-07-13T01:12:46;487.00;128.00
55331;DHT22;58851;42.984;20.336;2023-07-13T01:15:53;487.00;128.00
55331;DHT22;58851;42.984;20.336;2023-07-13T01:18:28;486.90;128.00
55331;DHT22;58851;42.984;20.336;2023-07-13T01:23:25;486.90;128.00
55331;DHT22;58851;42.984;20.336;2023-07-13T01:25:52;486.80;128.00
55331;DHT22;58851;42.984;20.336;2023-07-13T01:28:19;486.80;128.00
55331;DHT22;58851;42.984;20.336;2023-07-13T01:30:45;486.70;128.00
55331;DHT22;58851;42.984;20.336;2023-07-13T01:33:17;486.70;128.00
55331;DHT22;58851;42.984;20.336;2023-07-13T01:35:45;486.70;128.00
55331;DHT22;58851;42.984;20.336;2023-07-13T01:38:13;486.70;128.00
55331;DHT22;58851;42.984;20.336;2023-07-13T01:40:39;486.70;128.00
55331;DHT22;58851;42.984;20.336;2023-07-13T01:43:05;486.60;128.00
55331;DHT22;58851;42.984;20.336;2023-07-13T01:45:31;486.50;128.00
55331;DHT22;58851;42.984;20.336;2023-07-13T01:47:57;486.40;128.00
55331;DHT22;58851;42.984;20.336;2023-07-13T01:50:24;486.40;128.00
55331;DHT22;58851;42.984;20.336;2023-07-13T01:52:50;486.40;128.00
55331;DHT22;58851;42.984;20.336;2023-07-13T01:55:16;486.40;128.00
55331;DHT22;58851;42.984;20.336;2023-07-13T01:57:42;461.70;128.00
55331;DHT22;58851;42.984;20.336;2023-07-13T02:00:09;461.70;128.00
55331;DHT22;58851;42.984;20.336;2023-07-13T02:02:35;461.70;128.00
55331;DHT22;58851;42.984;20.336;2023-07-13T02:05:01;461.70;128.00
55331;DHT22;58851;42.984;20.336;2023-07-13T02:07:27;461.60;128.00
55331;DHT22;58851;42.984;20.336;2023-07-13T02:09:53;461.60;128.00
55331;DHT22;58851;42.984;20.336;2023-07-13T02:12:19;461.60;128.00
55331;DHT22;58851;42.984;20.336;2023-07-13T02:14:45;461.50;128.00
55331;DHT22;58851;42.984;20.336;2023-07-13T02:17:10;461.50;128.00
55331;DHT22;58851;42.984;20.336;2023-07-13T02:19:36;461.50;128.00
55331;DHT22;58851;42.984;20.336;2023-07-13T02:22:02;461.50;128.00
55331;DHT22;58851;42.984;20.336;2023-07-13T02:24:29;461.40;128.00
55331;DHT22;58851;42.984;20.336;2023-07-13T02:26:54;461.40;128.00
55331;DHT22;58851;42.984;20.336;2023-07-13T02:29:20;461.40;128.00
55331;DHT22;58851;42.984;20.336;2023-07-13T02:31:46;461.40;128.00
55331;DHT22;58851;42.984;20.336;2023-07-13T02:34:12;461.40;128.00
55331;DHT22;58851;42.984;20.336;2023-07-13T02:36:38;461.40;128.00
55331;DHT22;58851;42.984;20.336;2023-07-13T02:39:05;461.30;128.00
55331;DHT22;58851;42.984;20.336;2023-07-13T02:41:32;461.30;128.00
55331;DHT22;58851;42.984;20.336;2023-07-13T02:43:58;461.30;128.00
55331;DHT22;58851;42.984;20.336;2023-07-13T02:46:33;461.20;128.00
55331;DHT22;58851;42.984;20.336;2023-07-13T02:48:59;461.20;128.00
55331;DHT22;58851;42.984;20.336;2023-07-13T02:51:25;461.20;128.00
55331;DHT22;58851;42.984;20.336;2023-07-13T02:53:52;461.10;128.00
55331;DHT22;58851;42.984;20.336;2023-07-13T02:56:21;461.10;128.00
55331;DHT22;58851;42.984;20.336;2023-07-13T02:58:47;461.10;128.00
55331;DHT22;58851;42.984;20.336;2023-07-13T03:01:13;461.00;128.00
55331;DHT22;58851;42.984;20.336;2023-07-13T03:03:48;461.00;128.00
55331;DHT22;58851;42.984;20.336;2023-07-13T03:06:14;461.00;128.00
55331;DHT22;58851;42.984;20.336;2023-07-13T03:08:41;461.00;128.00
55331;DHT22;58851;42.984;20.336;2023-07-13T03:11:11;461.00;128.00
55331;DHT22;58851;42.984;20.336;2023-07-13T03:13:37;460.90;128.00
55331;DHT22;58851;42.984;20.336;2023-07-13T03:16:04;460.90;128.00
55331;DHT22;58851;42.984;20.336;2023-07-13T03:18:31;460.90;128.00
55331;DHT22;58851;42.984;20.336;2023-07-13T03:20:57;460.90;128.00
55331;DHT22;58851;42.984;20.336;2023-07-13T03:23:23;460.90;128.00
55331;DHT22;58851;42.984;20.336;2023-07-13T03:25:50;460.80;128.00
55331;DHT22;58851;42.984;20.336;2023-07-13T03:28:25;460.80;128.00
55331;DHT22;58851;42.984;20.336;2023-07-13T03:30:59;460.80;128.00
55331;DHT22;58851;42.984;20.336;2023-07-13T03:33:25;436.10;128.00
55331;DHT22;58851;42.984;20.336;2023-07-13T03:35:51;460.80;128.00
55331;DHT22;58851;42.984;20.336;2023-07-13T03:38:17;436.10;128.00
55331;DHT22;58851;42.984;20.336;2023-07-13T03:40:43;460.80;128.00
55331;DHT22;58851;42.984;20.336;2023-07-13T03:43:08;460.80;128.00
55331;DHT22;58851;42.984;20.336;2023-07-13T03:45:34;460.80;128.00
55331;DHT22;58851;42.984;20.336;2023-07-13T03:48:00;460.80;128.00
55331;DHT22;58851;42.984;20.336;2023-07-13T03:50:26;460.80;128.00
55331;DHT22;58851;42.984;20.336;2023-07-13T03:52:52;460.80;128.00
55331;DHT22;58851;42.984;20.336;2023-07-13T03:55:18;460.80;128.00
55331;DHT22;58851;42.984;20.336;2023-07-13T03:57:43;460.90;128.00
55331;DHT22;58851;42.984;20.336;2023-07-13T04:00:10;460.90;128.00
55331;DHT22;58851;42.984;20.336;2023-07-13T04:02:36;460.90;128.00
55331;DHT22;58851;42.984;20.336;2023-07-13T04:05:03;460.90;128.00
55331;DHT22;58851;42.984;20.336;2023-07-13T04:07:29;460.90;128.00
55331;DHT22;58851;42.984;20.336;2023-07-13T04:09:55;461.00;128.00
55331;DHT22;58851;42.984;20.336;2023-07-13T04:12:21;461.00;128.00
55331;DHT22;58851;42.984;20.336;2023-07-13T04:14:47;461.00;128.00
55331;DHT22;58851;42.984;20.336;2023-07-13T04:17:12;461.00;128.00
55331;DHT22;58851;42.984;20.336;2023-07-13T04:19:38;461.00;128.00
55331;DHT22;58851;42.984;20.336;2023-07-13T04:22:04;461.00;128.00
55331;DHT22;58851;42.984;20.336;2023-07-13T04:24:30;461.00;128.00
55331;DHT22;58851;42.984;20.336;2023-07-13T04:26:56;461.00;128.00
55331;DHT22;58851;42.984;20.336;2023-07-13T04:29:25;461.10;128.00
55331;DHT22;58851;42.984;20.336;2023-07-13T04:31:50;461.20;128.00
55331;DHT22;58851;42.984;20.336;2023-07-13T04:34:16;461.20;128.00
55331;DHT22;58851;42.984;20.336;2023-07-13T04:36:42;461.20;128.00
55331;DHT22;58851;42.984;20.336;2023-07-13T04:39:08;461.30;128.00
55331;DHT22;58851;42.984;20.336;2023-07-13T04:41:34;461.30;128.00
55331;DHT22;58851;42.984;20.336;2023-07-13T04:44:00;461.40;128.00
55331;DHT22;58851;42.984;20.336;2023-07-13T04:46:25;461.40;128.00
55331;DHT22;58851;42.984;20.336;2023-07-13T04:48:51;461.40;128.00
55331;DHT22;58851;42.984;20.336;2023-07-13T04:51:18;461.50;128.00
55331;DHT22;58851;42.984;20.336;2023-07-13T04:53:44;461.40;128.00
55331;DHT22;58851;42.984;20.336;2023-07-13T04:56:10;461.50;128.00
55331;DHT22;58851;42.984;20.336;2023-07-13T04:58:36;461.60;128.00
55331;DHT22;58851;42.984;20.336;2023-07-13T05:01:03;461.60;128.00
55331;DHT22;58851;42.984;20.336;2023-07-13T05:03:30;461.70;128.00
55331;DHT22;58851;42.984;20.336;2023-07-13T05:06:01;486.40;128.00
55331;DHT22;58851;42.984;20.336;2023-07-13T05:08:27;461.70;128.00
55331;DHT22;58851;42.984;20.336;2023-07-13T05:10:53;486.40;128.00
55331;DHT22;58851;42.984;20.336;2023-07-13T05:13:19;486.40;128.00
55331;DHT22;58851;42.984;20.336;2023-07-13T05:15:45;486.50;128.00
55331;DHT22;58851;42.984;20.336;2023-07-13T05:18:11;486.60;128.00
55331;DHT22;58851;42.984;20.336;2023-07-13T05:20:37;486.60;128.00
55331;DHT22;58851;42.984;20.336;2023-07-13T05:23:03;486.70;128.00
55331;DHT22;58851;42.984;20.336;2023-07-13T05:25:29;486.70;128.00
55331;DHT22;58851;42.984;20.336;2023-07-13T05:27:55;486.90;128.00
55331;DHT22;58851;42.984;20.336;2023-07-13T05:30:21;486.90;128.00
55331;DHT22;58851;42.984;20.336;2023-07-13T05:32:46;487.00;128.00
55331;DHT22;58851;42.984;20.336;2023-07-13T05:35:12;487.20;128.00
55331;DHT22;58851;42.984;20.336;2023-07-13T05:37:38;487.20;128.00
55331;DHT22;58851;42.984;20.336;2023-07-13T05:40:04;512.00;128.00
55331;DHT22;58851;42.984;20.336;2023-07-13T05:42:30;512.00;128.00
55331;DHT22;58851;42.984;20.336;2023-07-13T05:44:56;512.20;128.00
55331;DHT22;58851;42.984;20.336;2023-07-13T05:47:22;512.20;128.00
55331;DHT22;58851;42.984;20.336;2023-07-13T05:49:48;512.40;128.00
55331;DHT22;58851;42.984;20.336;2023-07-13T05:52:14;512.50;128.00
55331;DHT22;58851;42.984;20.336;2023-07-13T05:54:40;512.60;128.00
55331;DHT22;58851;42.984;20.336;2023-07-13T05:57:05;512.70;128.00
55331;DHT22;58851;42.984;20.336;2023-07-13T05:59:31;512.80;128.00
55331;DHT22;58851;42.984;20.336;2023-07-13T06:01:57;512.90;128.00
55331;DHT22;58851;42.984;20.336;2023-07-13T06:04:23;537.60;128.00
55331;DHT22;58851;42.984;20.336;2023-07-13T06:06:48;537.60;128.00
55331;DHT22;58851;42.984;20.336;2023-07-13T06:09:14;537.70;128.00
55331;DHT22;58851;42.984;20.336;2023-07-13T06:11:40;537.90;128.00
55331;DHT22;58851;42.984;20.336;2023-07-13T06:14:06;538.00;128.00
55331;DHT22;58851;42.984;20.336;2023-07-13T06:16:32;538.10;128.00
55331;DHT22;58851;42.984;20.336;2023-07-13T06:18:57;538.10;128.00
55331;DHT22;58851;42.984;20.336;2023-07-13T06:21:24;538.30;128.00
55331;DHT22;58851;42.984;20.336;2023-07-13T06:23:51;538.30;128.00
55331;DHT22;58851;42.984;20.336;2023-07-13T06:26:23;538.40;128.00
55331;DHT22;58851;42.984;20.336;2023-07-13T06:28:50;538.40;128.00
55331;DHT22;58851;42.984;20.336;2023-07-13T06:31:16;538.50;128.00
55331;DHT22;58851;42.984;20.336;2023-07-13T06:33:42;563.20;128.00
55331;DHT22;58851;42.984;20.336;2023-07-13T06:36:08;563.30;128.00
55331;DHT22;58851;42.984;20.336;2023-07-13T06:38:34;563.40;128.00
55331;DHT22;58851;42.984;20.336;2023-07-13T06:41:00;563.40;128.00
55331;DHT22;58851;42.984;20.336;2023-07-13T06:43:26;563.50;128.00
55331;DHT22;58851;42.984;20.336;2023-07-13T06:45:55;563.60;128.00
55331;DHT22;58851;42.984;20.336;2023-07-13T06:48:21;563.80;128.00
55331;DHT22;58851;42.984;20.336;2023-07-13T06:50:48;563.90;128.00
55331;DHT22;58851;42.984;20.336;2023-07-13T06:53:15;564.00;128.00
55331;DHT22;58851;42.984;20.336;2023-07-13T06:55:43;564.00;128.00
55331;DHT22;58851;42.984;20.336;2023-07-13T06:58:09;564.10;153.60
55331;DHT22;58851;42.984;20.336;2023-07-13T07:00:34;588.80;332.80
55331;DHT22;58851;42.984;20.336;2023-07-13T07:03:00;588.90;128.00
55331;DHT22;58851;42.984;20.336;2023-07-13T07:05:26;589.10;128.00
55331;DHT22;58851;42.984;20.336;2023-07-13T07:07:53;589.30;537.60
55331;DHT22;58851;42.984;20.336;2023-07-13T07:10:20;589.40;128.00
55331;DHT22;58851;42.984;20.336;2023-07-13T07:12:48;589.50;307.20
55331;DHT22;58851;42.984;20.336;2023-07-13T07:15:23;589.60;128.00
55331;DHT22;58851;42.984;20.336;2023-07-13T07:17:50;614.40;128.00
55331;DHT22;58851;42.984;20.336;2023-07-13T07:20:16;614.40;128.00
55331;DHT22;58851;42.984;20.336;2023-07-13T07:22:41;614.50;128.00
55331;DHT22;58851;42.984;20.336;2023-07-13T07:25:07;614.50;128.00
55331;DHT22;58851;42.984;20.336;2023-07-13T07:27:33;614.50;179.20
55331;DHT22;58851;42.984;20.336;2023-07-13T07:29:59;614.80;128.00
55331;DHT22;58851;42.984;20.336;2023-07-13T07:32:25;614.80;128.00
55331;DHT22;58851;42.984;20.336;2023-07-13T07:34:51;615.00;128.00
55331;DHT22;58851;42.984;20.336;2023-07-13T07:37:16;615.00;128.00
55331;DHT22;58851;42.984;20.336;2023-07-13T07:39:45;615.20;128.00
55331;DHT22;58851;42.984;20.336;2023-07-13T07:42:11;640.00;128.00
55331;DHT22;58851;42.984;20.336;2023-07-13T07:44:39;640.00;128.00
55331;DHT22;58851;42.984;20.336;2023-07-13T07:47:06;640.10;128.00
55331;DHT22;58851;42.984;20.336;2023-07-13T07:49:31;640.30;128.00
55331;DHT22;58851;42.984;20.336;2023-07-13T07:51:57;640.50;128.00
55331;DHT22;58851;42.984;20.336;2023-07-13T07:54:23;640.60;128.00
55331;DHT22;58851;42.984;20.336;2023-07-13T07:56:49;640.80;128.00
55331;DHT22;58851;42.984;20.336;2023-07-13T07:59:15;665.60;153.60
55331;DHT22;58851;42.984;20.336;2023-07-13T08:01:40;665.80;153.60
55331;DHT22;58851;42.984;20.336;2023-07-13T08:04:06;665.90;153.60
55331;DHT22;58851;42.984;20.336;2023-07-13T08:06:33;666.30;153.60
55331;DHT22;58851;42.984;20.336;2023-07-13T08:08:59;666.30;153.60
55331;DHT22;58851;42.984;20.336;2023-07-13T08:11:25;691.20;153.60
55331;DHT22;58851;42.984;20.336;2023-07-13T08:13:51;691.40;153.60
55331;DHT22;58851;42.984;20.336;2023-07-13T08:16:17;691.60;153.60
55331;DHT22;58851;42.984;20.336;2023-07-13T08:18:43;691.80;153.60
55331;DHT22;58851;42.984;20.336;2023-07-13T08:21:09;691.90;153.60
55331;DHT22;58851;42.984;20.336;2023-07-13T08:23:35;692.10;588.80
55331;DHT22;58851;42.984;20.336;2023-07-13T08:26:01;716.90;332.80
55331;DHT22;58851;42.984;20.336;2023-07-13T08:28:28;717.10;179.20
55331;DHT22;58851;42.984;20.336;2023-07-13T08:30:54;717.10;179.20
55331;DHT22;58851;42.984;20.336;2023-07-13T08:33:21;717.30;179.20
55331;DHT22;58851;42.984;20.336;2023-07-13T08:35:50;717.40;179.20
55331;DHT22;58851;42.984;20.336;2023-07-13T08:38:16;717.50;179.20
55331;DHT22;58851;42.984;20.336;2023-07-13T08:40:43;717.60;332.80
55331;DHT22;58851;42.984;20.336;2023-07-13T08:43:16;742.40;691.20
55331;DHT22;58851;42.984;20.336;2023-07-13T08:48:36;742.60;204.80
55331;DHT22;58851;42.984;20.336;2023-07-13T08:53:59;742.80;204.80
55331;DHT22;58851;42.984;20.336;2023-07-13T08:56:28;742.90;204.80
55331;DHT22;58851;42.984;20.336;2023-07-13T08:59:17;743.00;204.80
55331;DHT22;58851;42.984;20.336;2023-07-13T09:01:53;743.00;204.80
55331;DHT22;58851;42.984;20.336;2023-07-13T09:04:28;743.20;204.80
55331;DHT22;58851;42.984;20.336;2023-07-13T09:07:06;768.00;204.80
55331;DHT22;58851;42.984;20.336;2023-07-13T09:15:04;768.30;204.80
55331;DHT22;58851;42.984;20.336;2023-07-13T09:17:44;768.50;204.80
55331;DHT22;58851;42.984;20.336;2023-07-13T09:20:26;768.50;204.80
55331;DHT22;58851;42.984;20.336;2023-07-13T09:22:55;768.60;204.80
55331;DHT22;58851;42.984;20.336;2023-07-13T09:25:33;768.70;204.80
55331;DHT22;58851;42.984;20.336;2023-07-13T09:28:15;768.80;204.80
55331;DHT22;58851;42.984;20.336;2023-07-13T09:33:24;793.60;230.40
55331;DHT22;58851;42.984;20.336;2023-07-13T09:35:55;793.60;230.40
55331;DHT22;58851;42.984;20.336;2023-07-13T09:38:24;793.60;230.40
55331;DHT22;58851;42.984;20.336;2023-07-13T09:43:36;793.80;230.40
55331;DHT22;58851;42.984;20.336;2023-07-13T09:46:02;793.80;230.40
55331;DHT22;58851;42.984;20.336;2023-07-13T09:48:35;793.90;230.40
55331;DHT22;58851;42.984;20.336;2023-07-13T09:51:13;794.00;230.40
55331;DHT22;58851;42.984;20.336;2023-07-13T09:53:42;794.00;230.40
55331;DHT22;58851;42.984;20.336;2023-07-13T09:56:28;794.00;230.40
55331;DHT22;58851;42.984;20.336;2023-07-13T09:58:55;794.10;230.40
55331;DHT22;58851;42.984;20.336;2023-07-13T10:01:36;794.20;230.40
55331;DHT22;58851;42.984;20.336;2023-07-13T10:04:11;794.20;230.40
55331;DHT22;58851;42.984;20.336;2023-07-13T10:06:39;794.30;230.40
55331;DHT22;58851;42.984;20.336;2023-07-13T10:09:08;794.30;230.40
55331;DHT22;58851;42.984;20.336;2023-07-13T10:11:35;794.30;230.40
55331;DHT22;58851;42.984;20.336;2023-07-13T10:14:15;794.40;230.40
55331;DHT22;58851;42.984;20.336;2023-07-13T10:16:43;794.40;230.40
55331;DHT22;58851;42.984;20.336;2023-07-13T10:19:19;794.50;230.40
55331;DHT22;58851;42.984;20.336;2023-07-13T10:21:56;794.40;230.40
55331;DHT22;58851;42.984;20.336;2023-07-13T10:24:31;794.50;230.40
55331;DHT22;58851;42.984;20.336;2023-07-13T10:29:36;819.30;230.40
55331;DHT22;58851;42.984;20.336;2023-07-13T10:32:09;819.40;230.40
55331;DHT22;58851;42.984;20.336;2023-07-13T10:34:37;819.40;230.40
55331;DHT22;58851;42.984;20.336;2023-07-13T10:37:05;819.50;230.40
55331;DHT22;58851;42.984;20.336;2023-07-13T10:39:34;819.60;230.40
55331;DHT22;58851;42.984;20.336;2023-07-13T10:42:05;819.70;230.40
55331;DHT22;58851;42.984;20.336;2023-07-13T10:44:33;819.70;230.40
55331;DHT22;58851;42.984;20.336;2023-07-13T10:47:02;819.80;230.40
55331;DHT22;58851;42.984;20.336;2023-07-13T10:49:33;819.90;230.40
55331;DHT22;58851;42.984;20.336;2023-07-13T10:52:01;819.90;230.40
55331;DHT22;58851;42.984;20.336;2023-07-13T10:54:32;820.00;230.40
55331;DHT22;58851;42.984;20.336;2023-07-13T10:57:21;820.10;230.40
55331;DHT22;58851;42.984;20.336;2023-07-13T10:59:49;844.80;256.00
55331;DHT22;58851;42.984;20.336;2023-07-13T11:02:34;845.00;256.00
55331;DHT22;58851;42.984;20.336;2023-07-13T11:05:47;845.00;256.00
55331;DHT22;58851;42.984;20.336;2023-07-13T11:08:19;845.20;256.00
55331;DHT22;58851;42.984;20.336;2023-07-13T11:10:54;845.40;256.00
55331;DHT22;58851;42.984;20.336;2023-07-13T11:25:01;870.50;256.00
55331;DHT22;58851;42.984;20.336;2023-07-13T11:32:40;870.70;256.00
55331;DHT22;58851;42.984;20.336;2023-07-13T11:35:13;870.70;256.00
55331;DHT22;58851;42.984;20.336;2023-07-13T11:37:41;870.90;256.00
55331;DHT22;58851;42.984;20.336;2023-07-13T11:40:16;871.10;256.00
55331;DHT22;58851;42.984;20.336;2023-07-13T11:42:42;871.20;256.00
55331;DHT22;58851;42.984;20.336;2023-07-13T11:45:21;871.20;256.00
55331;DHT22;58851;42.984;20.336;2023-07-13T11:47:49;871.30;256.00
55331;DHT22;58851;42.984;20.336;2023-07-13T11:50:20;896.20;256.00
55331;DHT22;58851;42.984;20.336;2023-07-13T11:52:46;896.40;256.00
55331;DHT22;58851;42.984;20.336;2023-07-13T11:55:16;896.40;256.00
55331;DHT22;58851;42.984;20.336;2023-07-13T11:57:54;896.70;256.00
55331;DHT22;58851;42.984;20.336;2023-07-13T12:00:26;896.90;256.00
55331;DHT22;58851;42.984;20.336;2023-07-13T12:02:55;896.90;256.00
55331;DHT22;58851;42.984;20.336;2023-07-13T12:05:22;921.60;281.60
55331;DHT22;58851;42.984;20.336;2023-07-13T12:07:50;921.70;281.60
55331;DHT22;58851;42.984;20.336;2023-07-13T12:10:25;921.60;281.60
55331;DHT22;58851;42.984;20.336;2023-07-13T12:13:03;921.60;281.60
55331;DHT22;58851;42.984;20.336;2023-07-13T12:15:39;921.90;281.60
55331;DHT22;58851;42.984;20.336;2023-07-13T12:18:19;922.20;281.60
55331;DHT22;58851;42.984;20.336;2023-07-13T12:20:47;922.50;281.60
55331;DHT22;58851;42.984;20.336;2023-07-13T12:23:33;947.40;281.60
55331;DHT22;58851;42.984;20.336;2023-07-13T12:26:02;947.30;281.60
55331;DHT22;58851;42.984;20.336;2023-07-13T12:31:40;947.40;281.60
55331;DHT22;58851;42.984;20.336;2023-07-13T12:36:38;947.60;281.60
55331;DHT22;58851;42.984;20.336;2023-07-13T12:39:17;947.80;281.60
55331;DHT22;58851;42.984;20.336;2023-07-13T12:41:44;947.70;281.60
55331;DHT22;58851;42.984;20.336;2023-07-13T12:44:39;947.80;281.60
55331;DHT22;58851;42.984;20.336;2023-07-13T12:47:09;948.10;281.60
55331;DHT22;58851;42.984;20.336;2023-07-13T12:49:42;972.90;307.20
55331;DHT22;58851;42.984;20.336;2023-07-13T12:52:17;973.30;307.20
55331;DHT22;58851;42.984;20.336;2023-07-13T12:54:55;973.60;307.20
55331;DHT22;58851;42.984;20.336;2023-07-13T12:57:25;998.40;332.80
55331;DHT22;58851;42.984;20.336;2023-07-13T12:59:55;998.70;332.80
55331;DHT22;58851;42.984;20.336;2023-07-13T13:02:33;998.90;332.80
55331;DHT22;58851;42.984;20.336;2023-07-13T13:05:00;999.10;332.80
55331;DHT22;58851;42.984;20.336;2023-07-13T13:07:29;1024.00;332.80
55331;DHT22;58851;42.984;20.336;2023-07-13T13:09:55;1024.20;332.80
55331;DHT22;58851;42.984;20.336;2023-07-13T13:12:22;1024.60;332.80
55331;DHT22;58851;42.984;20.336;2023-07-13T13:14:49;999.10;332.80
55331;DHT22;58851;42.984;20.336;2023-07-13T13:17:23;999.10;332.80
55331;DHT22;58851;42.984;20.336;2023-07-13T13:19:51;999.30;332.80
55331;DHT22;58851;42.984;20.336;2023-07-13T13:22:20;1024.10;332.80
55331;DHT22;58851;42.984;20.336;2023-07-13T13:24:46;1024.00;332.80
55331;DHT22;58851;42.984;20.336;2023-07-13T13:27:21;1024.10;332.80
55331;DHT22;58851;42.984;20.336;2023-07-13T13:29:50;1024.10;332.80
55331;DHT22;58851;42.984;20.336;2023-07-13T13:32:19;1024.80;332.80
55331;DHT22;58851;42.984;20.336;2023-07-13T13:34:45;1024.50;332.80
55331;DHT22;58851;42.984;20.336;2023-07-13T13:37:23;1024.70;332.80
55331;DHT22;58851;42.984;20.336;2023-07-13T13:39:50;1024.30;332.80
55331;DHT22;58851;42.984;20.336;2023-07-13T13:42:17;1024.80;332.80
55331;DHT22;58851;42.984;20.336;2023-07-13T13:44:43;1024.50;332.80
55331;DHT22;58851;42.984;20.336;2023-07-13T13:47:32;1024.20;332.80
55331;DHT22;58851;42.984;20.336;2023-07-13T13:50:10;1049.70;358.40
55331;DHT22;58851;42.984;20.336;2023-07-13T13:52:36;1024.70;332.80
55331;DHT22;58851;42.984;20.336;2023-07-13T13:55:18;1049.70;358.40
55331;DHT22;58851;42.984;20.336;2023-07-13T13:57:45;1049.80;358.40
55331;DHT22;58851;42.984;20.336;2023-07-13T14:00:12;1050.40;358.40
55331;DHT22;58851;42.984;20.336;2023-07-13T14:02:42;1050.30;358.40
55331;DHT22;58851;42.984;20.336;2023-07-13T14:05:13;1075.20;358.40
55331;DHT22;58851;42.984;20.336;2023-07-13T14:07:40;1050.50;358.40
55331;DHT22;58851;42.984;20.336;2023-07-13T14:10:12;1075.30;358.40
55331;DHT22;58851;42.984;20.336;2023-07-13T14:12:41;1050.50;358.40
55331;DHT22;58851;42.984;20.336;2023-07-13T14:15:17;1075.80;358.40
55331;DHT22;58851;42.984;20.336;2023-07-13T14:17:44;1101.30;384.00
55331;DHT22;58851;42.984;20.336;2023-07-13T14:20:11;1126.40;409.60
55331;DHT22;58851;42.984;20.336;2023-07-13T14:22:37;1101.20;384.00
55331;DHT22;58851;42.984;20.336;2023-07-13T14:25:03;1101.10;384.00
55331;DHT22;58851;42.984;20.336;2023-07-13T14:27:30;1075.90;358.40
55331;DHT22;58851;42.984;20.336;2023-07-13T14:29:56;1075.30;358.40
55331;DHT22;58851;42.984;20.336;2023-07-13T14:32:22;1100.90;384.00
55331;DHT22;58851;42.984;20.336;2023-07-13T14:34:49;1075.70;358.40
55331;DHT22;58851;42.984;20.336;2023-07-13T14:37:16;1100.80;384.00
55331;DHT22;58851;42.984;20.336;2023-07-13T14:39:51;1101.40;384.00
55331;DHT22;58851;42.984;20.336;2023-07-13T14:42:17;1101.20;384.00
55331;DHT22;58851;42.984;20.336;2023-07-13T14:44:44;1101.00;384.00
55331;DHT22;58851;42.984;20.336;2023-07-13T14:47:10;1076.10;358.40
55331;DHT22;58851;42.984;20.336;2023-07-13T14:49:42;1075.40;358.40
55331;DHT22;58851;42.984;20.336;2023-07-13T14:52:20;1075.70;358.40
55331;DHT22;58851;42.984;20.336;2023-07-13T14:54:46;1076.00;358.40
55331;DHT22;58851;42.984;20.336;2023-07-13T14:57:20;1101.10;384.00
55331;DHT22;58851;42.984;20.336;2023-07-13T14:59:46;1126.60;409.60
55331;DHT22;58851;42.984;20.336;2023-07-13T15:02:35;1101.40;384.00
55331;DHT22;58851;42.984;20.336;2023-07-13T15:05:24;1126.90;409.60
55331;DHT22;58851;42.984;20.336;2023-07-13T15:07:52;1152.30;409.60
55331;DHT22;58851;42.984;20.336;2023-07-13T15:10:26;1127.20;409.60
55331;DHT22;58851;42.984;20.336;2023-07-13T15:12:56;1126.90;409.60
55331;DHT22;58851;42.984;20.336;2023-07-13T15:15:23;1152.70;409.60
55331;DHT22;58851;42.984;20.336;2023-07-13T15:17:49;1177.70;409.60
55331;DHT22;58851;42.984;20.336;2023-07-13T15:20:17;1203.20;435.20
55331;DHT22;58851;42.984;20.336;2023-07-13T15:22:44;1178.10;409.60
55331;DHT22;58851;42.984;20.336;2023-07-13T15:25:23;1152.30;409.60
55331;DHT22;58851;42.984;20.336;2023-07-13T15:27:51;1152.70;409.60
55331;DHT22;58851;42.984;20.336;2023-07-13T15:30:31;1178.10;409.60
55331;DHT22;58851;42.984;20.336;2023-07-13T15:33:01;1152.80;409.60
55331;DHT22;58851;42.984;20.336;2023-07-13T15:35:33;1152.50;409.60
55331;DHT22;58851;42.984;20.336;2023-07-13T15:37:58;1177.60;409.60
55331;DHT22;58851;42.984;20.336;2023-07-13T15:40:25;1152.20;409.60
55331;DHT22;58851;42.984;20.336;2023-07-13T15:42:51;1152.60;409.60